Flight Track Log - Related Links

Times and Time Zones

All times are in EST time to prevent confusion due to time zone crossing. See the CJT1575 flight status page for this flight to view local times or setup timezone preferences in your user account.

Time Position Orientation Groundspeed Altitude Reporting Facility
EST Latitude Longitude Course Direction KTS MPH feet Rate Location/Type
Thu 10:12:22 PM 45.6833 -73.9833 180° South 10 12 300  Level Montreal Center
Thu 10:13:22 PM 45.6667 -73.9833 270° West 20 23 300 700 Level Montreal Center
Thu 10:14:22 PM 45.6667 -74.0333 215° Southwest 150 173 1,700 1,550 Climbing Montreal Center
Thu 10:15:22 PM 45.6167 -74.0833 250° West 200 230 3,400 2,250 Climbing Montreal Center
Thu 10:16:22 PM 45.6000 -74.1500 245° Southwest 230 265 6,200 3,200 Climbing Montreal Center
Thu 10:17:22 PM 45.5667 -74.2500 254° West 240 276 9,800 3,100 Climbing Montreal Center
Thu 10:18:22 PM 45.5500 -74.3333 240° Southwest 250 288 12,400 2,650 Climbing Montreal Center
Thu 10:19:22 PM 45.5167 -74.4167 259° West 240 276 15,100 2,250 Climbing Montreal Center
Thu 10:20:22 PM 45.5000 -74.5333 257° West 270 311 16,900 2,400 Climbing Montreal Center
Thu 10:21:22 PM 45.4833 -74.6333 259° West 270 311 19,900 2,250 Climbing Montreal Center
Thu 10:22:22 PM 45.4667 -74.7500 257° West 270 311 21,400 1,850 Climbing Montreal Center
Thu 10:23:22 PM 45.4500 -74.8500 254° West 270 311 23,600 1,650 Climbing Montreal Center
Thu 10:24:22 PM 45.4333 -74.9333 260° West 270 311 24,700 1,000 Climbing Montreal Center
Thu 10:25:22 PM 45.4167 -75.0667 259° West 290 334 25,600 1,100 Climbing Montreal Center
Thu 10:26:22 PM 45.4000 -75.1833 259° West 300 345 26,900 1,350 Climbing Montreal Center
Thu 10:27:22 PM 45.3833 -75.3000 248° West 310 357 28,300 1,450 Climbing Montreal Center
Thu 10:28:22 PM 45.3500 -75.4167 259° West 300 345 29,800 1,450 Climbing Montreal Center
Thu 10:29:22 PM 45.3333 -75.5333 257° West 300 345 31,200 1,050 Climbing Montreal Center
Thu 10:30:22 PM 45.3167 -75.6333 259° West 290 334 31,900 400 Climbing Montreal Center
Thu 10:31:22 PM 45.3000 -75.7500 261° West 300 345 32,000 50 Climbing Montreal Center
Thu 10:32:22 PM 45.2833 -75.9000 259° West 320 368 32,000  Level Montreal Center
Thu 10:33:22 PM 45.2667 -76.0167 259° West 320 368 32,000  Level Montreal Center
Thu 10:34:22 PM 45.2500 -76.1333 248° West 320 368 32,000  Level Montreal Center
Thu 10:35:22 PM 45.2167 -76.2500 248° West 320 368 32,000  Level Montreal Center
Thu 10:36:22 PM 45.1833 -76.3667 235° Southwest 320 368 32,000  Level Montreal Center
Thu 10:37:22 PM 45.1333 -76.4667 245° Southwest 320 368 32,000  Level Montreal Center
Thu 10:37:55 PM 45.1167 -76.5167 239° Southwest 320 368 32,000  Level Toronto Center
Thu 10:38:55 PM 45.0667 -76.6333 245° Southwest 310 357 32,000  Level Toronto Center
Thu 10:39:55 PM 45.0333 -76.7333 245° Southwest 310 357 32,000  Level Toronto Center
Thu 10:40:55 PM 45.0000 -76.8333 239° Southwest 310 357 32,000  Level Toronto Center
Thu 10:41:55 PM 44.9500 -76.9500 235° Southwest 310 357 32,000  Level Toronto Center
Thu 10:42:55 PM 44.9000 -77.0500 248° West 310 357 32,000  Level Toronto Center
Thu 10:43:55 PM 44.8667 -77.1667 230° Southwest 310 357 32,000  Level Toronto Center
Thu 10:44:55 PM 44.8167 -77.2500 251° West 320 368 32,000  Level Toronto Center
Thu 10:45:55 PM 44.7833 -77.3833 230° Southwest 310 357 32,000  Level Toronto Center
Thu 10:46:55 PM 44.7333 -77.4667 242° Southwest 310 357 32,000  Level Toronto Center
Thu 10:47:55 PM 44.6833 -77.6000 241° Southwest 310 357 32,000  Level Toronto Center
Thu 10:48:55 PM 44.6500 -77.6833 235° Southwest 310 357 32,000  Level Toronto Center
Thu 10:49:55 PM 44.6000 -77.7833 239° Southwest 310 357 32,000  Level Toronto Center
Thu 10:50:55 PM 44.5500 -77.9000 248° West 320 368 32,000  Level Toronto Center
Thu 10:51:55 PM 44.5167 -78.0167 235° Southwest 320 368 32,000  Level Toronto Center
Thu 10:52:55 PM 44.4667 -78.1167 239° Southwest 320 368 32,000  Level Toronto Center
Thu 10:53:55 PM 44.4167 -78.2333 235° Southwest 320 368 32,000  Level Toronto Center
Thu 10:54:55 PM 44.3667 -78.3333 239° Southwest 320 368 32,000  Level Toronto Center
Thu 10:55:55 PM 44.3167 -78.4500 254° West 320 368 32,000  Level Toronto Center
Thu 10:56:55 PM 44.3000 -78.5333 239° Southwest 320 368 32,000  Level Toronto Center
Thu 10:57:55 PM 44.2500 -78.6500 239° Southwest 320 368 32,000 -700 Level Toronto Center
Thu 10:58:55 PM 44.2000 -78.7667 245° Southwest 320 368 30,600 -2,200 Descending Toronto Center
Thu 10:59:55 PM 44.1667 -78.8667 227° Southwest 310 357 27,600 -2,700 Descending Toronto Center
Thu 11:00:55 PM 44.1000 -78.9667 235° Southwest 290 334 25,200 -2,250 Descending Toronto Center
Thu 11:01:55 PM 44.0667 -79.0333 224° Southwest 260 299 23,100 -2,000 Descending Toronto Center
Thu 11:02:55 PM 44.0167 -79.1000 224° Southwest 240 276 21,200 -1,800 Descending Toronto Center
Thu 11:03:55 PM 43.9667 -79.1667 224° Southwest 250 288 19,500 -1,700 Descending Toronto Center
Thu 11:04:55 PM 43.9167 -79.2333 222° Southwest 260 299 17,800 -1,400 Descending Toronto Center
Thu 11:05:55 PM 43.8500 -79.3167 230° Southwest 300 345 16,700 -850 Descending Toronto Center
Thu 11:06:55 PM 43.8000 -79.4000 227° Southwest 310 357 16,100 -900 Descending Toronto Center
Thu 11:07:55 PM 43.7333 -79.5000 224° Southwest 290 334 14,900 -900 Descending Toronto Center
Thu 11:08:55 PM 43.6833 -79.5667 216° Southwest 290 334 14,300 -700 Descending Toronto Center
Thu 11:09:55 PM 43.6167 -79.6333 188° South 290 334 13,500 -1,250 Descending Toronto Center
Thu 11:10:55 PM 43.5333 -79.6500 196° South 300 345 11,800 -1,750 Descending Toronto Center
Thu 11:11:55 PM 43.4500 -79.6833 190° South 300 345 10,000 -2,150 Descending Toronto Center
Thu 11:12:55 PM 43.3833 -79.7000 151° Southeast 280 322 7,500 -2,300 Descending Toronto Center
Thu 11:13:55 PM 43.3167 -79.6500 170° South 270 311 5,400 -1,600 Descending Toronto Center
Thu 11:14:55 PM 43.2500 -79.6333 144° Southeast 250 288 4,300 -950 Descending Toronto Center
Thu 11:15:55 PM 43.2000 -79.5833 206° Southwest 210 242 3,500 -600 Descending Toronto Center
Thu 11:16:55 PM 43.1500 -79.6167 216° Southwest 190 219 3,100 -200 Descending Toronto Center
Thu 11:17:55 PM 43.1167 -79.6500 270° West 170 196 3,100 -100 Level Toronto Center
Thu 11:18:55 PM 43.1167 -79.7167 295° West 160 184 2,900 -200 Descending Toronto Center
Thu 11:19:55 PM 43.1333 -79.7667 295° West 150 173 2,700 -400 Descending Toronto Center
Thu 11:20:55 PM 43.1500 -79.8167 270° West 140 161 2,100 -700 Descending Toronto Center
Thu 11:21:55 PM 43.1500 -79.8667 304° West 130 150 1,300 -650 Descending Toronto Center
Thu 11:22:55 PM 43.1667 -79.9000 304° West 120 138 800 -500 Descending Toronto Center

Login

Don't have an account? Register now (free) for customized features, flight alerts, and more!